Time;durP1;ratioP1;P1;durP2;ratioP2;P2;SDS_P1;SDS_P2;PMS_P1;PMS_P2;Temp;Humidity;BMP_temperature;BMP_pressure;BME280_temperature;BME280_humidity;BME280_pressure;Samples;Min_cycle;Max_cycle;Signal;HPM_P1;HPM_P2
2023/07/15 00:01:02;;;;;;;2.80;1.95;;;;;;;17.33;100.00;98020.97;5137657;28;20484;-62
2023/07/15 00:03:28;;;;;;;2.75;1.55;;;;;;;17.39;100.00;98024.72;5138049;28;20369;-61
2023/07/15 00:05:57;;;;;;;4.68;1.70;;;;;;;17.38;100.00;98029.50;5137674;28;20089;-62
2023/07/15 00:08:23;;;;;;;2.33;1.60;;;;;;;17.36;100.00;98040.25;5138018;27;20055;-62
2023/07/15 00:10:49;;;;;;;3.65;1.55;;;;;;;17.30;100.00;98030.91;5137587;28;20457;-62
2023/07/15 00:13:18;;;;;;;2.75;1.67;;;;;;;17.21;100.00;98028.00;5138083;28;20054;-62
2023/07/15 00:15:47;;;;;;;4.57;1.98;;;;;;;17.12;100.00;98030.59;5136575;27;20134;-61
2023/07/15 00:18:14;;;;;;;3.50;1.63;;;;;;;17.25;100.00;98030.66;5137728;28;20073;-62
2023/07/15 00:20:40;;;;;;;2.75;1.90;;;;;;;17.13;100.00;98037.72;5137397;28;20058;-61
2023/07/15 00:23:16;;;;;;;1.45;1.30;;;;;;;17.26;100.00;98033.00;5137405;28;20058;-61
2023/07/15 00:25:42;;;;;;;1.35;1.20;;;;;;;17.23;100.00;98044.16;5137787;28;20047;-62
2023/07/15 00:28:10;;;;;;;2.05;1.30;;;;;;;17.18;100.00;98042.72;5137357;28;20090;-62
2023/07/15 00:30:36;;;;;;;2.92;2.00;;;;;;;16.98;100.00;98040.06;5137794;28;20058;-62
2023/07/15 00:33:03;;;;;;;3.17;1.70;;;;;;;16.90;100.00;98044.25;5137383;28;20043;-61
2023/07/15 00:35:29;;;;;;;4.30;1.50;;;;;;;17.05;100.00;98050.19;5137738;28;20051;-61
2023/07/15 00:37:55;;;;;;;4.03;1.83;;;;;;;17.00;100.00;98053.50;5137195;28;20053;-62
2023/07/15 00:40:21;;;;;;;2.28;1.85;;;;;;;17.05;100.00;98062.03;5137612;28;20043;-62
2023/07/15 00:42:50;;;;;;;4.15;2.20;;;;;;;17.04;100.00;98060.47;5137155;28;20047;-62
2023/07/15 00:45:16;;;;;;;6.43;1.60;;;;;;;17.00;100.00;98072.88;5137379;28;20324;-62
2023/07/15 00:47:47;;;;;;;1.75;1.48;;;;;;;17.10;100.00;98069.03;5137402;27;20062;-62
2023/07/15 00:50:14;;;;;;;3.17;1.75;;;;;;;16.99;100.00;98061.00;5137207;27;20047;-62
2023/07/15 00:52:40;;;;;;;6.03;1.83;;;;;;;16.91;100.00;98067.94;5137398;27;20133;-62
2023/07/15 00:55:08;;;;;;;1.33;1.23;;;;;;;16.92;100.00;98072.25;5137146;28;20062;-62
2023/07/15 00:57:34;;;;;;;2.75;1.50;;;;;;;16.79;100.00;98074.94;5137401;28;20348;-62
2023/07/15 01:00:02;;;;;;;4.07;1.50;;;;;;;16.87;100.00;98090.19;5136974;28;20130;-62
2023/07/15 01:02:30;;;;;;;1.30;1.20;;;;;;;16.82;100.00;98090.69;5137355;27;20280;-62
2023/07/15 01:04:56;;;;;;;4.22;1.95;;;;;;;16.73;100.00;98103.53;5137004;28;20047;-62
2023/07/15 01:07:22;;;;;;;3.63;2.03;;;;;;;16.74;100.00;98105.88;5137310;27;20054;-61
2023/07/15 01:09:50;;;;;;;3.50;1.85;;;;;;;16.70;100.00;98107.97;5136823;28;20051;-62
2023/07/15 01:12:16;;;;;;;4.90;1.70;;;;;;;16.66;100.00;98130.19;5137073;28;20400;-62
2023/07/15 01:14:43;;;;;;;1.92;1.63;;;;;;;16.60;100.00;98142.19;5137057;28;20066;-62
2023/07/15 01:17:09;;;;;;;5.47;1.90;;;;;;;16.65;100.00;98138.91;5136891;28;20055;-62
2023/07/15 01:19:35;;;;;;;2.97;1.48;;;;;;;16.65;100.00;98136.91;5136935;28;20089;-62
2023/07/15 01:22:02;;;;;;;3.67;1.67;;;;;;;16.46;100.00;98177.28;5136810;28;20051;-62
2023/07/15 01:24:29;;;;;;;3.08;1.75;;;;;;;16.50;100.00;98159.81;5136941;28;20437;-61
2023/07/15 01:26:57;;;;;;;3.72;1.80;;;;;;;16.51;100.00;98164.13;5139123;27;20411;-62
2023/07/15 01:29:23;;;;;;;1.85;1.45;;;;;;;16.58;100.00;98161.22;5140649;28;20192;-62
2023/07/15 01:31:49;;;;;;;5.22;2.10;;;;;;;16.50;100.00;98160.59;5140181;28;20093;-62
2023/07/15 01:34:15;;;;;;;1.83;1.55;;;;;;;16.51;100.00;98167.69;5140638;27;20415;-62
2023/07/15 01:36:41;;;;;;;3.50;1.80;;;;;;;16.47;100.00;98169.75;5139905;28;20047;-62
2023/07/15 01:39:09;;;;;;;2.15;1.58;;;;;;;16.47;100.00;98173.28;5139896;28;20086;-62
2023/07/15 01:41:35;;;;;;;4.50;2.15;;;;;;;16.37;100.00;98177.06;5140044;28;20475;-62
2023/07/15 01:44:04;;;;;;;2.40;1.60;;;;;;;16.35;100.00;98198.84;5140200;28;20134;-61
2023/07/15 01:46:30;;;;;;;4.50;1.80;;;;;;;16.35;100.00;98209.13;5140178;28;20408;-62
2023/07/15 01:48:59;;;;;;;3.25;1.85;;;;;;;16.27;100.00;98216.78;5140037;28;20061;-62
2023/07/15 01:51:25;;;;;;;6.97;1.95;;;;;;;16.29;100.00;98236.50;5140238;27;20352;-62
2023/07/15 01:53:51;;;;;;;2.25;1.70;;;;;;;16.22;100.00;98262.31;5139832;28;20051;-62
2023/07/15 01:56:19;;;;;;;5.10;1.77;;;;;;;16.26;100.00;98278.03;5140183;28;20083;-62
2023/07/15 01:58:45;;;;;;;4.85;2.20;;;;;;;16.20;100.00;98272.25;5139529;28;20051;-62
2023/07/15 02:01:11;;;;;;;2.45;1.60;;;;;;;16.19;100.00;98301.88;5140177;27;20053;-62
2023/07/15 02:03:37;;;;;;;3.03;2.25;;;;;;;16.14;100.00;98321.72;5139608;28;20050;-62
2023/07/15 02:06:03;;;;;;;2.58;1.52;;;;;;;15.99;100.00;98373.72;5140015;28;20054;-62
2023/07/15 02:08:29;;;;;;;5.18;1.90;;;;;;;16.04;100.00;98382.75;5139890;28;20105;-61
2023/07/15 02:10:55;;;;;;;4.22;1.58;;;;;;;16.18;100.00;98346.53;5139602;28;20057;-62
2023/07/15 02:13:21;;;;;;;2.45;1.52;;;;;;;16.17;100.00;98328.41;5139604;27;20082;-62
2023/07/15 02:15:47;;;;;;;5.32;1.65;;;;;;;16.18;100.00;98314.13;5139624;28;20047;-62
2023/07/15 02:18:13;;;;;;;1.90;1.45;;;;;;;16.15;100.00;98303.13;5139805;28;20143;-61
2023/07/15 02:20:39;;;;;;;1.55;1.45;;;;;;;16.18;100.00;98319.66;5139414;28;20070;-61
2023/07/15 02:23:05;;;;;;;6.50;1.92;;;;;;;16.26;100.00;98294.63;5139790;28;20047;-62
2023/07/15 02:25:32;;;;;;;7.28;1.85;;;;;;;16.26;100.00;98286.34;5139399;28;20133;-62
2023/07/15 02:27:58;;;;;;;3.40;1.77;;;;;;;16.21;100.00;98318.03;5139959;27;20338;-61
2023/07/15 02:30:24;;;;;;;4.57;1.45;;;;;;;16.14;100.00;98318.94;5139208;28;20050;-62
2023/07/15 02:32:50;;;;;;;3.05;1.80;;;;;;;16.43;100.00;98294.31;5139653;28;20058;-61
2023/07/15 02:35:16;;;;;;;4.75;2.05;;;;;;;16.56;100.00;98243.84;5139021;28;20408;-61
2023/07/15 02:37:43;;;;;;;1.75;1.50;;;;;;;16.44;100.00;98245.28;5138513;27;20051;-62
2023/07/15 02:40:11;;;;;;;3.70;2.00;;;;;;;16.44;100.00;98215.63;5139313;28;20115;-61
2023/07/15 02:42:37;;;;;;;3.25;1.55;;;;;;;16.95;100.00;98193.19;5139213;28;20060;-61
2023/07/15 02:45:06;;;;;;;2.92;1.80;;;;;;;17.48;100.00;98121.06;5139346;28;20101;-61
2023/07/15 02:47:32;;;;;;;2.13;1.20;;;;;;;17.81;100.00;98103.16;5138936;28;20051;-62
2023/07/15 02:50:03;;;;;;;5.72;1.70;;;;;;;18.38;100.00;98125.66;5139423;28;20051;-62
2023/07/15 02:52:30;;;;;;;4.80;1.88;;;;;;;18.64;100.00;98183.97;5138847;28;20047;-62
2023/07/15 02:54:56;;;;;;;7.47;1.65;;;;;;;18.78;100.00;98231.53;5139187;28;20431;-62
2023/07/15 02:57:22;;;;;;;4.05;2.25;;;;;;;19.20;100.00;98273.13;5138729;27;20047;-62
2023/07/15 02:59:49;;;;;;;4.20;1.60;;;;;;;19.30;100.00;98343.47;5139135;27;20051;-62
2023/07/15 03:02:15;;;;;;;2.08;1.55;;;;;;;19.55;100.00;98364.94;5138639;28;20051;-62
2023/07/15 03:04:41;;;;;;;1.80;1.70;;;;;;;19.69;100.00;98414.59;5138924;28;20115;-62
2023/07/15 03:07:09;;;;;;;2.95;1.70;;;;;;;20.10;100.00;98456.63;5138492;27;20051;-62
2023/07/15 03:09:35;;;;;;;7.60;1.55;;;;;;;20.04;100.00;98505.72;5138800;28;20055;-62
2023/07/15 03:12:01;;;;;;;1.60;1.50;;;;;;;20.33;100.00;98516.72;5138967;27;20103;-62
2023/07/15 03:14:27;;;;;;;4.55;1.90;;;;;;;20.73;100.00;98566.38;5138654;28;20051;-62
2023/07/15 03:16:53;;;;;;;9.20;1.77;;;;;;;20.86;100.00;98597.78;5138664;27;20453;-62
2023/07/15 03:19:19;;;;;;;2.17;1.60;;;;;;;21.14;100.00;98630.25;5138342;28;20154;-62
2023/07/15 03:21:45;;;;;;;2.00;1.67;;;;;;;21.29;100.00;98652.06;5138794;28;20196;-62
2023/07/15 03:24:11;;;;;;;3.55;1.30;;;;;;;21.43;100.00;98648.84;5138427;28;20112;-62
2023/07/15 03:26:37;;;;;;;1.48;1.38;;;;;;;21.63;100.00;98686.84;5138827;28;20043;-62
2023/07/15 03:29:05;;;;;;;4.38;1.33;;;;;;;22.09;100.00;98710.28;5138212;28;20078;-62
2023/07/15 03:31:32;;;;;;;2.55;1.83;;;;;;;22.25;100.00;98738.03;5138724;28;20141;-63
2023/07/15 03:33:58;;;;;;;2.47;1.00;;;;;;;22.28;100.00;98744.72;5138609;28;20395;-60
2023/07/15 03:36:24;;;;;;;1.08;0.95;;;;;;;21.98;100.00;98755.31;5138027;28;20142;-60
2023/07/15 03:38:50;;;;;;;3.28;1.50;;;;;;;22.56;100.00;98765.25;5138188;28;20399;-60
2023/07/15 03:41:17;;;;;;;1.30;1.15;;;;;;;22.70;100.00;98778.69;5138233;27;20058;-60
2023/07/15 03:43:43;;;;;;;4.57;1.80;;;;;;;22.88;100.00;98780.81;5138197;27;20471;-60
2023/07/15 03:46:09;;;;;;;2.58;1.50;;;;;;;23.16;100.00;98801.31;5138156;28;20051;-60
2023/07/15 03:48:35;;;;;;;1.70;1.25;;;;;;;23.17;100.00;98800.06;5137842;27;20326;-60
2023/07/15 03:51:01;;;;;;;6.10;1.52;;;;;;;23.40;100.00;98804.38;5137144;28;20408;-60
2023/07/15 03:53:27;;;;;;;1.30;1.20;;;;;;;23.60;100.00;98825.56;5138355;28;20058;-60
2023/07/15 03:55:53;;;;;;;4.78;1.50;;;;;;;23.69;100.00;98831.19;5137823;28;20046;-60
2023/07/15 03:58:20;;;;;;;3.05;1.27;;;;;;;23.78;100.00;98836.06;5138338;28;20137;-60
2023/07/15 04:00:46;;;;;;;2.10;1.25;;;;;;;23.58;100.00;98830.84;5137620;28;20058;-60
2023/07/15 04:03:12;;;;;;;4.40;1.25;;;;;;;23.99;100.00;98845.59;5137948;28;20047;-60
2023/07/15 04:05:38;;;;;;;3.45;1.58;;;;;;;23.82;100.00;98837.47;5138018;28;20142;-60
2023/07/15 04:08:04;;;;;;;4.50;1.15;;;;;;;23.93;100.00;98843.41;5137546;28;20043;-60
2023/07/15 04:10:30;;;;;;;4.32;1.50;;;;;;;23.73;100.00;98851.44;5137878;28;20153;-60
2023/07/15 04:12:56;;;;;;;1.77;1.10;;;;;;;24.21;100.00;98857.44;5137626;28;20047;-60
2023/07/15 04:15:22;;;;;;;2.40;1.40;;;;;;;24.31;100.00;98861.03;5137926;28;20047;-61
2023/07/15 04:17:48;;;;;;;1.98;1.25;;;;;;;24.21;100.00;98865.84;5137652;28;20047;-60
2023/07/15 04:20:17;;;;;;;2.60;1.40;;;;;;;23.79;100.00;98863.59;5137744;28;20112;-60
2023/07/15 04:22:43;;;;;;;5.13;1.60;;;;;;;24.02;100.00;98879.03;5137489;28;20055;-60
2023/07/15 04:25:11;;;;;;;7.10;1.52;;;;;;;24.14;100.00;98871.75;5137853;28;20317;-60
2023/07/15 04:27:38;;;;;;;2.15;1.20;;;;;;;24.35;100.00;98872.84;5137445;28;20069;-60
2023/07/15 04:30:05;;;;;;;1.80;1.40;;;;;;;24.22;100.00;98875.78;5137843;27;20051;-61
2023/07/15 04:32:32;;;;;;;3.15;1.55;;;;;;;24.64;100.00;98881.63;5137655;27;20085;-60
2023/07/15 04:34:58;;;;;;;3.95;1.50;;;;;;;25.12;100.00;98903.53;5137513;27;20138;-60
2023/07/15 04:37:25;;;;;;;1.40;1.30;;;;;;;24.97;100.00;98902.63;5137485;28;20043;-60
2023/07/15 04:39:51;;;;;;;4.22;1.50;;;;;;;25.61;98.43;98922.13;5137321;28;20051;-61
2023/07/15 04:42:18;;;;;;;2.20;1.50;;;;;;;25.52;99.77;98922.91;5137576;28;20093;-60
2023/07/15 04:44:44;;;;;;;3.65;1.30;;;;;;;25.90;96.08;98927.19;5137289;28;20196;-60
2023/07/15 04:47:10;;;;;;;3.20;1.50;;;;;;;25.67;95.41;98933.50;5137424;28;20054;-60
2023/07/15 04:49:36;;;;;;;4.82;1.50;;;;;;;26.14;92.78;98932.81;5137180;28;20062;-60
2023/07/15 04:52:03;;;;;;;3.17;1.20;;;;;;;25.75;93.98;98938.28;5137599;28;20043;-62
2023/07/15 04:54:28;;;;;;;2.97;1.30;;;;;;;26.01;93.51;98935.84;5137100;28;20192;-61
2023/07/15 04:56:54;;;;;;;1.70;1.17;;;;;;;26.31;92.46;98938.03;5137538;28;20054;-61
2023/07/15 04:59:20;;;;;;;3.95;1.48;;;;;;;26.81;88.14;98952.38;5136832;28;20113;-60
2023/07/15 05:01:46;;;;;;;4.57;1.35;;;;;;;26.79;85.57;98946.47;5139585;27;20130;-61
2023/07/15 05:04:12;;;;;;;2.17;1.30;;;;;;;26.94;84.93;98947.28;5140631;28;20471;-61
2023/07/15 05:06:39;;;;;;;4.40;1.17;;;;;;;27.32;82.73;98957.72;5140515;28;20440;-61
2023/07/15 05:09:05;;;;;;;2.70;1.50;;;;;;;27.45;82.00;98960.25;5140901;28;20050;-60
2023/07/15 05:11:31;;;;;;;6.43;1.20;;;;;;;27.27;81.90;98961.22;5140503;27;20476;-61
2023/07/15 05:13:57;;;;;;;2.90;1.30;;;;;;;27.48;81.20;98964.13;5140756;28;20440;-61
2023/07/15 05:16:23;;;;;;;4.93;1.45;;;;;;;27.42;81.88;98958.41;5140477;28;20054;-61
2023/07/15 05:18:49;;;;;;;1.70;1.23;;;;;;;27.72;79.81;98969.66;5140844;28;20047;-61
2023/07/15 05:21:15;;;;;;;3.92;1.45;;;;;;;28.01;79.18;98971.69;5140320;28;20062;-61
2023/07/15 05:23:41;;;;;;;5.28;1.60;;;;;;;28.48;76.28;98969.81;5140769;28;20289;-61
2023/07/15 05:26:07;;;;;;;2.60;1.10;;;;;;;28.03;77.16;98967.13;5140285;27;20153;-61
2023/07/15 05:28:33;;;;;;;4.22;1.13;;;;;;;28.42;74.55;98975.38;5140652;27;20051;-61
2023/07/15 05:30:59;;;;;;;3.58;1.27;;;;;;;28.56;74.59;98973.78;5140226;28;20432;-61
2023/07/15 05:33:25;;;;;;;3.03;1.23;;;;;;;28.64;73.52;98977.72;5140342;28;20141;-60
2023/07/15 05:35:51;;;;;;;1.67;1.10;;;;;;;29.02;72.32;98973.06;5140366;28;20162;-61
2023/07/15 05:38:17;;;;;;;2.72;1.00;;;;;;;29.26;71.06;98979.22;5140046;27;20425;-61
2023/07/15 05:40:44;;;;;;;2.60;1.13;;;;;;;29.09;70.28;98978.28;5140283;28;20065;-61
2023/07/15 05:43:10;;;;;;;3.00;1.20;;;;;;;28.96;70.80;98977.84;5140075;28;20061;-60
2023/07/15 05:45:36;;;;;;;4.72;1.17;;;;;;;29.27;69.59;98985.66;5140044;27;20051;-61
2023/07/15 05:48:02;;;;;;;1.85;1.13;;;;;;;29.40;69.22;98983.22;5140005;27;20054;-60
2023/07/15 05:50:32;;;;;;;4.40;1.30;;;;;;;29.60;66.97;98984.47;5140229;28;20054;-60
2023/07/15 05:52:58;;;;;;;3.08;1.02;;;;;;;29.12;69.21;98977.28;5139907;28;20064;-61
2023/07/15 05:55:24;;;;;;;1.50;1.05;;;;;;;29.77;67.07;98979.72;5139829;28;20060;-60
2023/07/15 05:57:50;;;;;;;3.45;1.00;;;;;;;29.90;65.47;98984.97;5139697;28;20051;-60
2023/07/15 06:00:16;;;;;;;3.88;1.00;;;;;;;30.23;64.13;98982.38;5139557;28;20138;-61
2023/07/15 06:02:42;;;;;;;2.42;1.00;;;;;;;29.55;64.23;98983.84;5139958;27;20050;-60
2023/07/15 06:05:09;;;;;;;2.03;1.00;;;;;;;29.64;64.96;98976.53;5139862;28;20054;-61
2023/07/15 06:07:35;;;;;;;2.83;1.02;;;;;;;29.59;63.94;98980.03;5139882;28;20100;-61
2023/07/15 06:10:01;;;;;;;3.53;1.00;;;;;;;29.81;63.29;98987.97;5139732;28;20055;-60
2023/07/15 06:12:27;;;;;;;3.97;1.30;;;;;;;30.36;62.78;98984.00;5138849;27;20054;-61
2023/07/15 06:14:54;;;;;;;3.88;1.02;;;;;;;30.32;61.75;98997.59;5139556;28;20135;-61
2023/07/15 06:17:21;;;;;;;6.95;1.65;;;;;;;29.88;60.43;98991.09;5139739;28;20433;-60
2023/07/15 06:19:47;;;;;;;5.97;1.10;;;;;;;30.20;60.92;98994.72;5139330;28;20365;-60
2023/07/15 06:22:13;;;;;;;1.38;1.00;;;;;;;30.20;60.74;99003.19;5139821;27;20138;-61
2023/07/15 06:24:39;;;;;;;1.42;1.10;;;;;;;30.51;59.83;98998.75;5139311;28;20142;-61
2023/07/15 06:27:05;;;;;;;3.17;1.13;;;;;;;30.19;60.19;98990.34;5139751;27;20051;-61
2023/07/15 06:29:31;;;;;;;5.28;1.38;;;;;;;30.60;58.72;98998.53;5139547;28;20051;-61
2023/07/15 06:31:58;;;;;;;2.95;1.02;;;;;;;29.42;61.13;98989.13;5139457;28;20328;-61
2023/07/15 06:34:24;;;;;;;3.78;1.27;;;;;;;30.40;59.65;99001.50;5139494;28;20478;-61
2023/07/15 06:36:50;;;;;;;8.35;1.33;;;;;;;30.88;58.51;99001.50;5139155;28;20055;-61
2023/07/15 06:39:16;;;;;;;4.10;1.20;;;;;;;31.02;58.34;98998.97;5139411;28;20077;-61
2023/07/15 06:41:43;;;;;;;3.28;1.40;;;;;;;30.55;59.53;98993.59;5139129;28;20430;-60
2023/07/15 06:44:09;;;;;;;2.92;1.10;;;;;;;31.12;58.17;99003.94;5139226;28;20058;-61
2023/07/15 06:46:35;;;;;;;5.65;1.27;;;;;;;31.09;58.57;98998.47;5139032;28;20051;-61
2023/07/15 06:49:01;;;;;;;1.80;0.85;;;;;;;30.90;57.05;99001.78;5139413;28;20043;-61
2023/07/15 06:51:27;;;;;;;2.97;1.30;;;;;;;30.76;57.76;98999.09;5138954;27;20204;-61
2023/07/15 06:53:53;;;;;;;1.40;0.93;;;;;;;31.05;57.33;98997.97;5139360;28;20092;-60
2023/07/15 06:56:19;;;;;;;2.08;0.80;;;;;;;30.69;55.39;99006.03;5138710;28;20407;-60
2023/07/15 06:58:45;;;;;;;2.00;1.02;;;;;;;30.69;54.92;99006.81;5138704;28;20053;-61
2023/07/15 07:01:11;;;;;;;4.35;1.00;;;;;;;31.42;53.46;99011.97;5138944;28;20138;-61
2023/07/15 07:03:37;;;;;;;1.60;0.85;;;;;;;31.68;53.45;99003.25;5138908;28;20133;-61
2023/07/15 07:06:03;;;;;;;2.90;0.93;;;;;;;31.75;53.66;99005.56;5138886;28;20320;-60
2023/07/15 07:08:29;;;;;;;3.95;1.30;;;;;;;31.88;53.99;99005.88;5138763;28;20066;-61
2023/07/15 07:10:55;;;;;;;3.70;1.00;;;;;;;31.90;54.39;99008.19;5138935;28;20055;-61
2023/07/15 07:13:21;;;;;;;2.05;0.90;;;;;;;31.78;53.41;99004.53;5138520;28;20058;-62
2023/07/15 07:15:47;;;;;;;2.25;1.10;;;;;;;31.64;51.56;99011.25;5138944;27;20171;-61
2023/07/15 07:18:14;;;;;;;5.43;1.10;;;;;;;31.44;51.51;99003.75;5138381;27;20444;-61
2023/07/15 07:20:40;;;;;;;3.78;1.00;;;;;;;31.22;51.69;99000.84;5138748;28;20051;-61
2023/07/15 07:23:07;;;;;;;6.78;1.23;;;;;;;31.82;51.17;99005.09;5138309;27;20190;-59
2023/07/15 07:25:33;;;;;;;2.92;1.20;;;;;;;31.77;52.34;99000.19;5138766;28;20055;-60
2023/07/15 07:27:59;;;;;;;3.42;1.20;;;;;;;31.65;51.84;98999.38;5138611;27;20054;-62
2023/07/15 07:30:27;;;;;;;1.48;1.02;;;;;;;31.62;52.28;99000.44;5138495;28;20331;-61
2023/07/15 07:32:53;;;;;;;4.65;1.15;;;;;;;31.91;52.11;99004.06;5138235;28;20051;-61
2023/07/15 07:35:19;;;;;;;1.60;1.13;;;;;;;32.25;51.99;99006.84;5138187;28;20047;-60
2023/07/15 07:37:45;;;;;;;3.03;0.93;;;;;;;32.46;51.74;98998.88;5138558;27;20331;-61
2023/07/15 07:40:12;;;;;;;2.72;1.20;;;;;;;32.15;50.93;99006.34;5137960;27;20100;-62
2023/07/15 07:42:38;;;;;;;1.33;0.93;;;;;;;31.96;51.26;99003.31;5138458;27;20051;-62
2023/07/15 07:45:12;;;;;;;1.35;0.80;;;;;;;32.46;50.98;98999.63;5138081;28;20198;-61
2023/07/15 07:47:38;;;;;;;4.35;1.52;;;;;;;32.83;49.77;98995.63;5138431;27;20084;-60
2023/07/15 07:50:04;;;;;;;17.60;1.50;;;;;;;32.86;49.37;99002.34;5138046;28;20059;-61
2023/07/15 07:52:30;;;;;;;3.20;1.20;;;;;;;32.84;49.72;99002.09;5138395;28;20087;-61
2023/07/15 07:54:56;;;;;;;1.75;1.08;;;;;;;33.00;48.19;98999.19;5138212;28;20072;-62
2023/07/15 07:57:23;;;;;;;1.63;0.98;;;;;;;31.69;50.29;99004.81;5137803;28;20320;-62
2023/07/15 07:59:49;;;;;;;2.35;1.25;;;;;;;30.35;51.74;98999.41;5138074;28;20097;-61
2023/07/15 08:02:15;;;;;;;2.92;1.20;;;;;;;30.81;52.05;99007.66;5137963;28;20051;-61
2023/07/15 08:04:41;;;;;;;1.52;0.80;;;;;;;30.72;51.69;99007.84;5138093;28;20051;-61
2023/07/15 08:07:07;;;;;;;2.78;1.27;;;;;;;29.72;51.91;98997.38;5137783;28;20043;-61
2023/07/15 08:09:33;;;;;;;1.63;0.93;;;;;;;29.22;53.84;98998.41;5138069;27;20400;-61
2023/07/15 08:11:59;;;;;;;4.03;1.30;;;;;;;28.29;55.76;98992.63;5137591;28;20134;-60
2023/07/15 08:14:25;;;;;;;6.10;1.30;;;;;;;27.27;56.95;98980.16;5138016;28;20396;-60
2023/07/15 08:16:51;;;;;;;5.25;1.30;;;;;;;27.05;59.27;98994.53;5137535;28;20134;-61
2023/07/15 08:19:17;;;;;;;2.42;1.30;;;;;;;26.83;61.14;98994.88;5138021;28;20146;-60
2023/07/15 08:21:43;;;;;;;2.53;1.38;;;;;;;27.98;59.83;98995.97;5137386;28;20151;-60
2023/07/15 08:24:09;;;;;;;4.93;1.10;;;;;;;28.79;57.81;98997.38;5138028;28;20047;-60
2023/07/15 08:26:35;;;;;;;3.65;1.10;;;;;;;29.34;56.27;98990.84;5137658;27;20168;-60
2023/07/15 08:29:02;;;;;;;3.13;1.15;;;;;;;29.49;55.69;98987.91;5137639;28;20058;-61
2023/07/15 08:31:29;;;;;;;3.30;1.20;;;;;;;29.36;56.12;98991.13;5137689;28;20051;-61
2023/07/15 08:33:55;;;;;;;5.40;1.45;;;;;;;30.16;55.69;98987.72;5137312;28;20412;-61
2023/07/15 08:36:21;;;;;;;1.58;0.95;;;;;;;30.55;53.56;98993.59;5136798;27;20104;-61
2023/07/15 08:38:47;;;;;;;8.73;1.48;;;;;;;30.01;51.94;98982.97;5137314;28;20058;-61
2023/07/15 08:41:14;;;;;;;7.55;1.20;;;;;;;30.50;49.85;99002.09;5137467;27;20054;-61
2023/07/15 08:43:43;;;;;;;6.97;1.13;;;;;;;30.73;49.45;98997.31;5137277;28;20141;-61
2023/07/15 08:46:17;;;;;;;3.00;1.15;;;;;;;31.18;49.15;98995.44;5137688;28;20062;-61
2023/07/15 08:48:44;;;;;;;3.22;1.33;;;;;;;31.46;49.58;98984.19;5137165;28;20134;-61
2023/07/15 08:51:11;;;;;;;2.92;1.10;;;;;;;32.06;48.95;99004.59;5137542;27;20051;-61
2023/07/15 08:53:38;;;;;;;1.92;0.98;;;;;;;31.68;48.49;98994.75;5137078;28;20089;-61
2023/07/15 08:56:05;;;;;;;12.25;1.80;;;;;;;30.56;49.25;98991.59;5136956;28;20490;-61
2023/07/15 08:58:32;;;;;;;4.90;1.17;;;;;;;29.78;50.49;99003.88;5137330;28;20046;-61
2023/07/15 09:00:57;;;;;;;2.67;1.40;;;;;;;29.80;50.71;98990.03;5137059;27;20138;-60
2023/07/15 09:03:23;;;;;;;3.75;1.10;;;;;;;30.13;50.32;98997.22;5137283;28;20285;-60
2023/07/15 09:05:50;;;;;;;1.58;1.02;;;;;;;29.83;49.76;98993.91;5136910;27;20088;-60
2023/07/15 09:08:16;;;;;;;2.10;1.10;;;;;;;30.76;48.50;98994.28;5137344;27;20323;-60
2023/07/15 09:10:51;;;;;;;2.97;1.15;;;;;;;30.90;48.75;98989.69;5136836;28;20082;-60
2023/07/15 09:13:22;;;;;;;2.00;1.10;;;;;;;31.31;48.05;98995.72;5137310;28;20067;-60
2023/07/15 09:15:49;;;;;;;5.47;1.40;;;;;;;31.67;48.51;98993.22;5136716;28;20055;-61
2023/07/15 09:18:15;;;;;;;4.97;1.40;;;;;;;31.07;48.36;98999.00;5137014;28;20047;-60
2023/07/15 09:20:41;;;;;;;3.35;1.00;;;;;;;31.19;48.64;98991.31;5136770;27;20051;-61
2023/07/15 09:23:07;;;;;;;2.00;1.10;;;;;;;30.86;46.97;99004.09;5136885;28;20083;-61
2023/07/15 09:25:35;;;;;;;6.45;1.63;;;;;;;30.41;47.13;99003.06;5136784;27;20100;-61
2023/07/15 09:28:01;;;;;;;3.53;1.10;;;;;;;30.82;46.69;99003.53;5136833;27;20078;-61
2023/07/15 09:30:27;;;;;;;2.05;1.20;;;;;;;31.67;46.38;99007.38;5137024;28;20058;-61
2023/07/15 09:32:53;;;;;;;2.65;1.20;;;;;;;31.63;46.35;99001.97;5136696;28;20051;-61
2023/07/15 09:35:20;;;;;;;4.15;1.23;;;;;;;31.57;46.57;98994.75;5136714;28;20188;-61
2023/07/15 09:37:47;;;;;;;3.90;1.20;;;;;;;31.16;46.74;98993.13;5136398;28;20440;-60
2023/07/15 09:40:14;;;;;;;4.18;1.13;;;;;;;31.04;46.71;99008.50;5136906;27;20042;-60
2023/07/15 09:42:50;;;;;;;3.15;1.00;;;;;;;31.64;44.73;99005.56;5136464;28;20047;-60
2023/07/15 09:45:32;;;;;;;4.95;1.20;;;;;;;30.77;45.50;99009.19;5136701;28;20107;-60
2023/07/15 09:47:57;;;;;;;2.15;1.00;;;;;;;31.16;44.74;99000.84;5139338;27;20320;-60
2023/07/15 09:50:25;;;;;;;3.08;1.25;;;;;;;31.79;44.39;99000.44;5140097;28;20055;-61
2023/07/15 09:52:54;;;;;;;4.55;1.25;;;;;;;32.17;44.72;99000.94;5140298;28;20430;-61
2023/07/15 09:55:21;;;;;;;2.28;1.20;;;;;;;32.04;45.08;98983.69;5139901;28;20362;-60
2023/07/15 09:57:53;;;;;;;4.03;1.30;;;;;;;31.40;45.11;99004.00;5140227;28;20047;-61
2023/07/15 10:00:20;;;;;;;1.77;1.08;;;;;;;31.84;44.72;98998.88;5139711;28;20047;-61
2023/07/15 10:02:52;;;;;;;2.75;1.27;;;;;;;32.15;44.83;98995.00;5140141;27;20137;-60
2023/07/15 10:05:19;;;;;;;1.23;1.00;;;;;;;32.07;44.37;99008.19;5139604;27;20196;-60
2023/07/15 10:07:46;;;;;;;1.73;1.00;;;;;;;31.65;44.07;98993.72;5139524;28;20437;-60
2023/07/15 10:10:12;;;;;;;2.22;1.20;;;;;;;31.75;44.16;98991.41;5139894;28;20047;-60
2023/07/15 10:12:40;;;;;;;1.50;1.27;;;;;;;31.84;44.13;98998.88;5139732;28;20058;-61
2023/07/15 10:15:07;;;;;;;2.83;1.27;;;;;;;31.83;43.49;99003.78;5139893;28;20047;-61
2023/07/15 10:17:34;;;;;;;3.28;1.20;;;;;;;31.98;43.83;98995.03;5139585;28;20051;-61
2023/07/15 10:20:03;;;;;;;1.60;1.02;;;;;;;32.26;43.59;98995.00;5139787;27;20149;-60
2023/07/15 10:22:34;;;;;;;3.60;1.13;;;;;;;31.45;44.54;98990.34;5139444;28;20271;-60
2023/07/15 10:25:03;;;;;;;2.58;1.25;;;;;;;31.11;45.53;98976.88;5139803;28;20059;-60
2023/07/15 10:27:30;;;;;;;6.03;1.30;;;;;;;31.49;45.17;98985.22;5139289;28;20047;-59
2023/07/15 10:30:23;;;;;;;2.67;1.10;;;;;;;31.58;45.59;98982.13;5139776;28;20145;-61
2023/07/15 10:33:11;;;;;;;3.40;1.37;;;;;;;31.52;45.16;98984.19;5115915;28;20134;-61
2023/07/15 10:35:51;;;;;;;1.75;1.00;;;;;;;31.97;44.10;98990.66;5139249;28;20113;-60
2023/07/15 10:38:25;;;;;;;3.55;1.20;;;;;;;31.80;43.97;98981.38;5139469;28;20134;-60
2023/07/15 10:40:54;;;;;;;2.72;1.48;;;;;;;31.06;44.65;98983.31;5138996;28;20141;-60
2023/07/15 10:43:22;;;;;;;1.63;1.13;;;;;;;31.73;43.94;98990.41;5139506;28;20331;-60
2023/07/15 10:45:51;;;;;;;2.17;0.90;;;;;;;31.93;43.76;98990.16;5138995;27;20196;-60
2023/07/15 10:48:17;;;;;;;1.38;1.00;;;;;;;31.62;44.53;98980.59;5138946;28;20047;-60
2023/07/15 10:50:47;;;;;;;1.55;1.27;;;;;;;31.54;45.37;98970.28;5138943;28;20107;-60
2023/07/15 10:53:21;;;;;;;1.17;1.00;;;;;;;31.39;45.13;98988.31;5139044;28;20103;-60
2023/07/15 10:55:53;;;;;;;2.78;1.00;;;;;;;31.25;45.04;98983.59;5139201;28;20042;-60
2023/07/15 10:58:20;;;;;;;2.83;1.40;;;;;;;31.19;44.68;98997.00;5138331;27;20335;-60
2023/07/15 11:00:46;;;;;;;4.15;1.25;;;;;;;30.99;45.75;98989.47;5139116;28;20134;-61
2023/07/15 11:03:12;;;;;;;3.78;1.30;;;;;;;30.13;46.14;98977.41;5138716;28;20434;-59
2023/07/15 11:05:42;;;;;;;4.57;0.90;;;;;;;30.13;46.05;98975.34;5139038;28;20057;-60
2023/07/15 11:08:08;;;;;;;5.03;1.00;;;;;;;29.41;46.57;98981.94;5138533;28;20047;-60
2023/07/15 11:10:34;;;;;;;1.30;1.20;;;;;;;28.55;47.50;98980.66;5138917;27;20143;-60
2023/07/15 11:13:11;;;;;;;2.85;1.20;;;;;;;28.66;47.92;98980.84;5138731;27;20057;-61
2023/07/15 11:15:36;;;;;;;5.28;1.30;;;;;;;28.51;48.32;98980.09;5138454;28;20142;-60
2023/07/15 11:18:02;;;;;;;3.92;1.27;;;;;;;28.60;47.59;98994.84;5138850;28;20089;-59
2023/07/15 11:20:29;;;;;;;6.35;1.38;;;;;;;28.52;47.70;98985.25;5138346;28;20055;-60
2023/07/15 11:22:55;;;;;;;1.50;1.25;;;;;;;28.75;47.78;98988.34;5138528;28;20133;-60
2023/07/15 11:25:21;;;;;;;4.18;1.30;;;;;;;28.59;46.22;98986.88;5138487;28;20133;-60
2023/07/15 11:27:47;;;;;;;1.30;1.20;;;;;;;28.65;46.32;98984.13;5138605;27;20396;-60